KPTB/PTB METAR and TAF weather

Enter ICAO airport designator
Station Type Date Time Source
KPTB METAR 2022/11/27 08:35 UTC NOAA

KPTB 270835Z AUTO 00000KT 10SM CLR 06/03 A3002 RMK AO2 T00560030


Station Type Date Time Source
KPTB Decoded METAR 2022/11/27 08:35 UTC NOAA

Petersburg, Dinwiddie County Airport, VA, United States (KPTB) 37-11N 077-31W
Nov 27, 2022 - 03:35 AM EST / 2022.11.27 0835 UTC
Wind: Calm:0
Visibility: 10 mile(s):0
Sky conditions: clear
Temperature: 42.1 F (5.6 C)
Dew Point: 37.4 F (3.0 C)
Relative Humidity: 83%
Pressure (altimeter): 30.02 in. Hg (1016 hPa)
ob: KPTB 270835Z AUTO 00000KT 10SM CLR 06/03 A3002 RMK AO2 T00560030
cycle: 8

Station Type Date Time Source
KPTB TAF UTC NOAA

Error!

Example: see airport list